Time;durP1;ratioP1;P1;durP2;ratioP2;P2;SDS_P1;SDS_P2;PMS_P1;PMS_P2;Temp;Humidity;BMP_temperature;BMP_pressure;BME280_temperature;BME280_humidity;BME280_pressure;Samples;Min_cycle;Max_cycle;Signal;HPM_P1;HPM_P2
2022/01/19 00:01:05;;;;;;;32.45;11.00;;;;;;;4.27;100.00;102941.06;5070103;28;20075;-75
2022/01/19 00:03:32;;;;;;;29.00;12.30;;;;;;;4.19;100.00;102933.50;5067842;28;20629;-73
2022/01/19 00:05:59;;;;;;;27.67;10.70;;;;;;;4.16;100.00;102925.94;5075553;28;20452;-75
2022/01/19 00:08:26;;;;;;;26.80;10.70;;;;;;;4.14;100.00;102930.88;5065480;28;20505;-73
2022/01/19 00:10:53;;;;;;;28.83;11.15;;;;;;;4.09;100.00;102922.72;5065511;28;20424;-76
2022/01/19 00:13:20;;;;;;;25.25;9.88;;;;;;;4.08;100.00;102932.06;5064482;28;20040;-73
2022/01/19 00:15:48;;;;;;;26.05;9.60;;;;;;;4.05;100.00;102929.13;5065377;28;20114;-75
2022/01/19 00:18:18;;;;;;;30.58;10.77;;;;;;;3.99;100.00;102922.94;5068065;28;20131;-73
2022/01/19 00:20:45;;;;;;;27.63;10.05;;;;;;;3.95;100.00;102923.81;5067729;28;20106;-73
2022/01/19 00:23:15;;;;;;;31.02;11.55;;;;;;;3.90;100.00;102912.94;5066995;28;20134;-73
2022/01/19 00:25:43;;;;;;;27.45;10.35;;;;;;;3.82;100.00;102908.16;5064334;28;20059;-76
2022/01/19 00:28:10;;;;;;;26.85;10.00;;;;;;;3.74;100.00;102887.75;5059137;28;20052;-72
2022/01/19 00:30:36;;;;;;;24.73;9.23;;;;;;;3.72;100.00;102879.03;5064125;28;20059;-72
2022/01/19 00:33:03;;;;;;;29.77;10.85;;;;;;;3.71;100.00;102874.66;5058386;28;20053;-73
2022/01/19 00:35:30;;;;;;;29.38;10.43;;;;;;;3.68;100.00;102852.53;5075287;28;20052;-74
2022/01/19 00:37:57;;;;;;;30.60;12.05;;;;;;;3.64;100.00;102840.56;5075314;28;20135;-73
2022/01/19 00:40:24;;;;;;;33.40;10.55;;;;;;;3.59;100.00;102830.50;5071176;28;20071;-73
2022/01/19 00:42:51;;;;;;;31.15;11.23;;;;;;;3.57;100.00;102826.44;5069449;28;20052;-74
2022/01/19 00:45:18;;;;;;;26.20;11.15;;;;;;;3.56;100.00;102831.09;5069489;28;20143;-75
2022/01/19 00:47:45;;;;;;;32.60;11.80;;;;;;;3.48;100.00;102817.28;5068534;28;20048;-73
2022/01/19 00:50:15;;;;;;;31.02;11.55;;;;;;;3.44;100.00;102827.22;5070300;28;20532;-76
2022/01/19 00:52:42;;;;;;;31.40;12.20;;;;;;;3.47;100.00;102832.88;5070176;28;20052;-74
2022/01/19 00:55:11;;;;;;;29.10;10.40;;;;;;;3.43;100.00;102837.34;5068563;28;20080;-74
2022/01/19 00:57:39;;;;;;;35.05;12.60;;;;;;;3.37;100.00;102844.00;5063886;28;20064;-74
2022/01/19 01:00:10;;;;;;;27.58;11.80;;;;;;;3.34;100.00;102830.13;5066669;28;20052;-75
2022/01/19 01:02:36;;;;;;;29.75;11.68;;;;;;;3.35;100.00;102827.09;5068868;28;20052;-73
2022/01/19 01:05:04;;;;;;;30.15;11.25;;;;;;;3.32;100.00;102819.47;5078332;28;20078;-74
2022/01/19 01:07:33;;;;;;;29.95;11.82;;;;;;;3.24;100.00;102809.19;5070533;28;20052;-72
2022/01/19 01:10:00;;;;;;;29.38;11.90;;;;;;;3.22;100.00;102794.16;5069320;28;20477;-72
2022/01/19 01:12:42;;;;;;;32.92;11.93;;;;;;;3.18;100.00;102784.94;5069362;28;20044;-74
2022/01/19 01:18:19;;;;;;;29.33;12.18;;;;;;;3.12;100.00;102769.72;4995219;28;20129;-73
2022/01/19 01:20:49;;;;;;;33.72;12.93;;;;;;;3.07;100.00;102770.59;5051908;28;20048;-73
2022/01/19 01:23:17;;;;;;;30.92;12.40;;;;;;;3.03;100.00;102777.78;5073892;28;20625;-71
2022/01/19 01:25:44;;;;;;;33.72;13.98;;;;;;;3.01;100.00;102777.28;5068041;28;20534;-72
2022/01/19 01:28:10;;;;;;;36.85;14.10;;;;;;;3.03;100.00;102782.47;5066411;28;20213;-72
2022/01/19 01:30:37;;;;;;;33.35;14.82;;;;;;;3.01;100.00;102787.41;5070177;28;20051;-73
2022/01/19 01:33:04;;;;;;;32.22;14.48;;;;;;;3.00;100.00;102772.09;5070378;28;20055;-75
2022/01/19 01:35:31;;;;;;;32.13;13.60;;;;;;;2.96;100.00;102758.19;5081329;28;20048;-73
2022/01/19 01:37:59;;;;;;;32.35;13.38;;;;;;;2.97;100.00;102762.56;5068513;28;20053;-74
2022/01/19 01:40:27;;;;;;;33.65;13.75;;;;;;;2.97;100.00;102761.75;5069575;28;20135;-71
2022/01/19 01:42:55;;;;;;;34.03;14.68;;;;;;;2.93;100.00;102753.31;5068103;28;20136;-73
2022/01/19 01:45:32;;;;;;;31.70;13.73;;;;;;;2.90;100.00;102744.91;5061334;28;20049;-72
2022/01/19 01:48:15;;;;;;;31.15;12.32;;;;;;;2.89;100.00;102735.06;5082195;28;20147;-74
2022/01/19 01:53:30;;;;;;;30.88;12.70;;;;;;;2.75;100.00;102748.69;5070241;28;20092;-72
2022/01/19 01:56:03;;;;;;;30.27;14.10;;;;;;;2.69;100.00;102755.31;5067381;28;20055;-74
2022/01/19 01:58:33;;;;;;;27.60;12.25;;;;;;;2.61;100.00;102769.66;5069990;28;20408;-72
2022/01/19 02:01:00;;;;;;;31.52;12.95;;;;;;;2.42;100.00;102779.75;5069508;28;20075;-76
2022/01/19 02:03:28;;;;;;;72.65;33.53;;;;;;;2.40;100.00;102776.50;5070273;28;20049;-74
2022/01/19 02:08:25;;;;;;;44.00;18.92;;;;;;;2.45;100.00;102755.41;5068941;28;20173;-73
2022/01/19 02:11:28;;;;;;;36.83;15.57;;;;;;;2.47;100.00;102741.44;5066647;28;20048;-73
2022/01/19 02:22:01;;;;;;;55.85;25.42;;;;;;;2.34;100.00;102743.00;5062355;28;20068;-77
2022/01/19 02:24:31;;;;;;;53.17;24.13;;;;;;;2.33;100.00;102741.34;5066962;28;20131;-75
2022/01/19 02:40:25;;;;;;;43.17;18.60;;;;;;;2.27;100.00;102698.78;5064105;28;20131;-73
2022/01/19 02:43:20;;;;;;;41.95;18.75;;;;;;;2.29;100.00;102701.25;5068155;28;20521;-72
2022/01/19 02:51:17;;;;;;;;;;;;;;;2.27;100.00;102659.75;5052075;28;20060;-72
2022/01/19 02:53:44;;;;;;;41.13;18.25;;;;;;;2.25;100.00;102660.06;5066366;28;19959;-74
2022/01/19 02:56:17;;;;;;;44.33;19.42;;;;;;;2.31;100.00;102649.88;5068812;28;20049;-73
2022/01/19 02:58:53;;;;;;;39.15;16.23;;;;;;;2.36;100.00;102647.03;5067489;28;20135;-72
2022/01/19 03:09:24;;;;;;;44.35;19.15;;;;;;;2.56;100.00;102635.81;5057315;28;20079;-74
2022/01/19 03:11:51;;;;;;;42.20;17.65;;;;;;;2.60;100.00;102634.91;5060749;28;20136;-73
2022/01/19 03:14:19;;;;;;;39.42;18.33;;;;;;;2.61;100.00;102636.53;5068697;28;20513;-74
2022/01/19 03:16:46;;;;;;;42.30;18.17;;;;;;;2.63;100.00;102636.25;5067442;28;20500;-73
2022/01/19 03:19:14;;;;;;;41.42;18.27;;;;;;;2.67;100.00;102623.63;5061452;28;20052;-75
2022/01/19 03:21:41;;;;;;;44.83;18.70;;;;;;;2.74;100.00;102624.84;5067363;28;20055;-76
2022/01/19 03:24:08;;;;;;;40.53;17.80;;;;;;;2.77;100.00;102642.59;5066572;28;20076;-73
2022/01/19 03:26:35;;;;;;;40.00;16.63;;;;;;;2.85;100.00;102638.34;5061716;28;20076;-73
2022/01/19 03:29:02;;;;;;;35.60;16.40;;;;;;;2.96;100.00;102626.94;5060881;28;20147;-73
2022/01/19 03:31:29;;;;;;;35.55;17.38;;;;;;;3.12;100.00;102611.88;5066560;28;20076;-74
2022/01/19 03:33:55;;;;;;;31.25;16.65;;;;;;;3.36;100.00;102612.50;5068435;28;20052;-76
2022/01/19 03:36:22;;;;;;;33.90;16.10;;;;;;;3.54;100.00;102608.84;5069492;28;20052;-74
2022/01/19 03:38:49;;;;;;;25.38;12.52;;;;;;;3.58;100.00;102598.91;5066337;28;20053;-75
2022/01/19 03:41:15;;;;;;;21.70;9.05;;;;;;;3.78;100.00;102595.75;5066981;28;20651;-72
2022/01/19 03:43:42;;;;;;;24.65;12.75;;;;;;;3.89;100.00;102594.44;5066734;28;20049;-72
2022/01/19 03:46:14;;;;;;;28.85;13.90;;;;;;;3.99;100.00;102590.66;5068082;28;20056;-72
2022/01/19 03:51:12;;;;;;;24.02;12.73;;;;;;;4.10;100.00;102561.91;5067341;28;20052;-73
2022/01/19 03:53:39;;;;;;;25.05;11.60;;;;;;;4.19;100.00;102568.28;5068037;28;20147;-72
2022/01/19 03:56:07;;;;;;;21.15;10.88;;;;;;;4.24;100.00;102560.75;5067806;28;20052;-75
2022/01/19 03:58:36;;;;;;;23.23;10.82;;;;;;;4.31;100.00;102563.03;5062314;28;20084;-75
2022/01/19 04:01:06;;;;;;;21.15;10.82;;;;;;;4.36;100.00;102561.00;5066309;28;20408;-72
2022/01/19 04:06:19;;;;;;;20.08;10.38;;;;;;;4.46;100.00;102546.25;5068843;28;20846;-75
2022/01/19 04:08:46;;;;;;;19.73;10.30;;;;;;;4.50;100.00;102544.50;5055329;28;20147;-73
2022/01/19 04:11:15;;;;;;;20.30;10.25;;;;;;;4.52;100.00;102540.31;5066939;28;20105;-73
2022/01/19 04:13:58;;;;;;;18.58;9.25;;;;;;;4.56;100.00;102527.59;5058029;28;20139;-74
2022/01/19 04:16:25;;;;;;;17.52;7.90;;;;;;;4.65;100.00;102533.94;5062922;28;20497;-72
2022/01/19 04:19:01;;;;;;;21.92;9.27;;;;;;;4.66;100.00;102532.81;5064954;28;20056;-73
2022/01/19 04:21:27;;;;;;;19.67;9.07;;;;;;;4.72;100.00;102522.53;5066939;28;20519;-73
2022/01/19 04:23:54;;;;;;;12.30;5.72;;;;;;;4.71;100.00;102527.22;5067123;28;20496;-73
2022/01/19 04:26:20;;;;;;;19.73;8.70;;;;;;;4.71;100.00;102519.00;5082768;28;20401;-73
2022/01/19 04:28:47;;;;;;;21.15;9.57;;;;;;;4.73;100.00;102508.50;5059068;28;20052;-75
2022/01/19 04:31:14;;;;;;;8.45;3.92;;;;;;;4.71;100.00;102508.03;5065181;28;20067;-74
2022/01/19 04:33:43;;;;;;;16.20;6.57;;;;;;;4.77;100.00;102494.97;5066090;28;20056;-73
2022/01/19 04:36:47;;;;;;;16.88;8.60;;;;;;;4.81;100.00;102502.25;5078156;28;20394;-73
2022/01/19 04:44:31;;;;;;;7.65;3.30;;;;;;;4.78;100.00;102496.59;5064933;28;20135;-73
2022/01/19 05:05:31;;;;;;;6.68;3.10;;;;;;;4.85;100.00;102464.84;5067762;28;20070;-73
2022/01/19 05:08:09;;;;;;;21.23;11.68;;;;;;;4.89;100.00;102454.84;5055559;28;20523;-75
2022/01/19 05:13:51;;;;;;;19.23;10.18;;;;;;;4.91;100.00;102427.94;5066451;28;20059;-72
2022/01/19 05:15:57;;;;;;;7.63;3.60;;;;;;;4.93;100.00;102433.88;5056796;28;20056;-73
2022/01/19 05:18:23;;;;;;;15.82;4.55;;;;;;;4.89;100.00;102413.72;5058479;28;20503;-73
2022/01/19 05:20:50;;;;;;;11.50;4.95;;;;;;;4.91;100.00;102416.13;5066318;28;20155;-70
2022/01/19 05:23:17;;;;;;;18.15;9.38;;;;;;;5.03;100.00;102408.91;5068727;28;20071;-72
2022/01/19 05:25:44;;;;;;;12.25;5.53;;;;;;;4.93;100.00;102402.91;5068818;28;20484;-71
2022/01/19 05:28:11;;;;;;;10.93;3.78;;;;;;;4.98;100.00;102395.34;5065079;28;20361;-73
2022/01/19 05:30:38;;;;;;;13.48;6.45;;;;;;;5.01;100.00;102396.63;5067285;28;20056;-74
2022/01/19 05:33:05;;;;;;;17.25;8.30;;;;;;;5.05;100.00;102394.88;5069751;28;20055;-75
2022/01/19 05:35:32;;;;;;;13.35;6.55;;;;;;;5.07;100.00;102389.88;5076755;28;20072;-74
2022/01/19 05:37:58;;;;;;;14.90;7.07;;;;;;;5.05;100.00;102392.94;5068462;28;20132;-73
2022/01/19 05:40:25;;;;;;;20.20;10.65;;;;;;;5.16;100.00;102399.72;5068709;28;20390;-74
2022/01/19 05:42:52;;;;;;;6.50;3.28;;;;;;;5.12;100.00;102407.00;5068723;28;20477;-72
2022/01/19 05:45:19;;;;;;;9.23;4.45;;;;;;;5.15;100.00;102403.63;5069305;28;20052;-77
2022/01/19 05:47:46;;;;;;;12.35;4.90;;;;;;;5.19;100.00;102412.81;5063713;28;20107;-73
2022/01/19 05:50:12;;;;;;;11.95;5.90;;;;;;;5.19;100.00;102406.50;5068834;28;20527;-72
2022/01/19 05:52:39;;;;;;;14.27;6.18;;;;;;;5.17;100.00;102406.03;5066263;28;20041;-73
2022/01/19 05:55:07;;;;;;;18.90;9.90;;;;;;;5.28;100.00;102405.41;5070129;28;20056;-74
2022/01/19 05:57:33;;;;;;;14.27;6.43;;;;;;;5.21;100.00;102394.09;5068564;28;20160;-73
2022/01/19 06:00:00;;;;;;;8.50;4.60;;;;;;;5.29;100.00;102376.81;5070395;28;20048;-74
2022/01/19 06:02:26;;;;;;;9.15;2.97;;;;;;;5.26;100.00;102373.91;5068916;28;20055;-73
2022/01/19 06:04:53;;;;;;;12.82;5.55;;;;;;;5.24;100.00;102363.25;5082512;28;20052;-73
2022/01/19 06:07:26;;;;;;;14.05;6.15;;;;;;;5.25;100.00;102358.56;5076346;28;20107;-74
2022/01/19 06:10:02;;;;;;;7.45;4.35;;;;;;;5.27;100.00;102357.13;5065398;28;20505;-73
2022/01/19 06:12:28;;;;;;;20.88;8.90;;;;;;;5.25;100.00;102358.56;5060685;28;20484;-74
2022/01/19 06:14:55;;;;;;;11.93;5.70;;;;;;;5.31;100.00;102349.84;5068628;28;20582;-73
2022/01/19 06:17:22;;;;;;;11.90;5.28;;;;;;;5.31;100.00;102351.81;5065587;28;20056;-73
2022/01/19 06:19:49;;;;;;;10.27;4.55;;;;;;;5.35;100.00;102353.59;5068942;28;20781;-74
2022/01/19 06:22:17;;;;;;;15.88;8.18;;;;;;;5.26;100.00;102346.47;5068888;28;20048;-74
2022/01/19 06:24:44;;;;;;;10.32;5.00;;;;;;;5.38;100.00;102352.94;5070479;28;20048;-74
2022/01/19 06:27:11;;;;;;;9.85;5.22;;;;;;;5.38;100.00;102352.13;5065487;28;20147;-76
2022/01/19 06:29:38;;;;;;;6.88;3.63;;;;;;;5.38;100.00;102361.19;5063725;28;20167;-74
2022/01/19 06:32:05;;;;;;;17.00;5.15;;;;;;;5.37;100.00;102356.81;5068591;28;20127;-73
2022/01/19 06:34:31;;;;;;;20.65;9.45;;;;;;;5.43;100.00;102353.91;5072750;28;20071;-73
2022/01/19 06:36:58;;;;;;;14.93;6.82;;;;;;;5.29;100.00;102359.53;5075939;28;20135;-71
2022/01/19 06:39:25;;;;;;;16.35;8.32;;;;;;;5.44;100.00;102365.34;5063552;28;20117;-72
2022/01/19 06:41:51;;;;;;;12.77;6.05;;;;;;;5.41;100.00;102363.25;5068922;28;20091;-75
2022/01/19 06:44:18;;;;;;;5.38;2.60;;;;;;;5.38;100.00;102365.84;5067234;28;20059;-73
2022/01/19 06:46:45;;;;;;;18.35;6.35;;;;;;;5.40;100.00;102361.66;5068827;28;20106;-72
2022/01/19 06:49:12;;;;;;;8.68;3.92;;;;;;;5.39;100.00;102364.72;5062618;28;20171;-74
2022/01/19 06:51:38;;;;;;;10.48;5.97;;;;;;;5.43;100.00;102362.16;5064292;28;20056;-74
2022/01/19 06:54:05;;;;;;;17.35;8.68;;;;;;;5.34;100.00;102360.19;5067784;28;20524;-72
2022/01/19 06:56:37;;;;;;;9.85;5.53;;;;;;;5.44;100.00;102361.81;5069271;28;20057;-75
2022/01/19 06:59:04;;;;;;;12.15;5.15;;;;;;;5.44;100.00;102353.59;5054362;28;20057;-72
2022/01/19 07:01:32;;;;;;;7.28;4.38;;;;;;;5.44;100.00;102354.38;5062310;28;20163;-72
2022/01/19 07:04:04;;;;;;;6.80;3.65;;;;;;;5.44;100.00;102354.38;5073387;28;20044;-73
2022/01/19 07:06:30;;;;;;;15.65;8.68;;;;;;;5.34;100.00;102353.91;5073475;28;20079;-73
2022/01/19 07:08:57;;;;;;;13.40;4.97;;;;;;;5.43;100.00;102350.03;5068999;28;20127;-71
2022/01/19 07:11:24;;;;;;;18.05;8.13;;;;;;;5.37;100.00;102362.28;5066656;28;20055;-73
2022/01/19 07:13:51;;;;;;;15.43;7.20;;;;;;;5.52;100.00;102346.44;5067886;28;20828;-74
2022/01/19 07:16:17;;;;;;;15.88;7.10;;;;;;;5.43;100.00;102337.44;5064840;28;20133;-73
2022/01/19 07:18:44;;;;;;;18.58;8.80;;;;;;;5.40;100.00;102325.97;5068392;28;20056;-74
2022/01/19 07:21:12;;;;;;;8.80;4.15;;;;;;;5.43;100.00;102308.84;5068628;28;20044;-74
2022/01/19 07:23:38;;;;;;;10.85;4.78;;;;;;;5.49;100.00;102314.97;5065852;28;22002;-75
2022/01/19 07:26:06;;;;;;;11.90;5.40;;;;;;;5.41;100.00;102313.06;5060391;28;20818;-73
2022/01/19 07:28:33;;;;;;;6.03;3.97;;;;;;;5.43;100.00;102304.50;5067055;28;20117;-72
2022/01/19 07:30:59;;;;;;;16.23;8.82;;;;;;;5.44;100.00;102298.69;5065904;28;20052;-74
2022/01/19 07:33:31;;;;;;;3.80;1.83;;;;;;;5.43;100.00;102306.09;5059772;28;20041;-73
2022/01/19 07:35:58;;;;;;;17.60;8.43;;;;;;;5.35;100.00;102303.34;5092909;28;20048;-72
2022/01/19 07:38:26;;;;;;;21.05;8.52;;;;;;;5.41;100.00;102299.31;5067067;28;20139;-73
2022/01/19 07:40:54;;;;;;;11.35;5.00;;;;;;;5.30;100.00;102287.84;5066204;28;20132;-73
2022/01/19 07:43:21;;;;;;;23.02;10.65;;;;;;;5.36;100.00;102277.50;5067859;28;20489;-73
2022/01/19 07:45:48;;;;;;;22.70;9.40;;;;;;;5.24;100.00;102280.91;5068671;28;20062;-75
2022/01/19 07:48:15;;;;;;;21.52;11.18;;;;;;;5.22;100.00;102282.38;5068673;28;20488;-74
2022/01/19 07:50:41;;;;;;;17.48;9.20;;;;;;;5.21;100.00;102278.84;5066393;28;20636;-76
2022/01/19 07:53:08;;;;;;;10.82;4.75;;;;;;;5.19;100.00;102266.56;5066991;28;20053;-75
2022/01/19 07:55:35;;;;;;;23.52;10.15;;;;;;;5.14;100.00;102278.50;5067426;28;20405;-75
2022/01/19 07:58:03;;;;;;;23.77;12.98;;;;;;;5.25;100.00;102266.09;5068325;28;20167;-74
2022/01/19 08:00:30;;;;;;;9.70;4.75;;;;;;;5.19;100.00;102267.38;5078462;28;20057;-73
2022/01/19 08:02:56;;;;;;;14.68;6.55;;;;;;;5.22;100.00;102268.66;5067545;28;20059;-76
2022/01/19 08:05:24;;;;;;;25.02;10.15;;;;;;;5.25;100.00;102273.50;5079138;28;20059;-73
2022/01/19 08:07:50;;;;;;;16.67;7.40;;;;;;;5.20;100.00;102274.47;5068653;28;20063;-72
2022/01/19 08:10:18;;;;;;;7.40;3.75;;;;;;;5.22;100.00;102277.69;5067719;28;20052;-73
2022/01/19 08:12:45;;;;;;;15.35;6.90;;;;;;;5.17;100.00;102275.09;5067768;28;20133;-74
2022/01/19 08:15:12;;;;;;;24.67;11.13;;;;;;;5.21;100.00;102269.78;5068363;28;20058;-72
2022/01/19 08:17:39;;;;;;;14.95;7.13;;;;;;;5.20;100.00;102281.91;5066793;28;20139;-75
2022/01/19 08:20:06;;;;;;;10.77;4.97;;;;;;;5.20;100.00;102277.22;5067977;28;20057;-73
2022/01/19 08:22:33;;;;;;;13.88;6.85;;;;;;;5.29;100.00;102274.44;5067407;28;20053;-69
2022/01/19 08:24:59;;;;;;;21.15;10.05;;;;;;;5.35;100.00;102273.97;5067321;28;20110;-69
2022/01/19 08:27:26;;;;;;;12.68;4.80;;;;;;;5.26;100.00;102275.91;5066858;28;21480;-74
2022/01/19 08:29:53;;;;;;;16.00;6.90;;;;;;;5.26;100.00;102278.66;5064366;28;20140;-73
2022/01/19 08:32:19;;;;;;;6.10;2.45;;;;;;;5.26;100.00;102289.63;5065777;28;20148;-73
2022/01/19 08:34:58;;;;;;;22.42;10.18;;;;;;;5.22;100.00;102283.19;5072829;28;20062;-76
2022/01/19 08:37:25;;;;;;;24.52;10.52;;;;;;;5.27;100.00;102283.00;5067482;28;20119;-73
2022/01/19 08:39:54;;;;;;;22.05;9.98;;;;;;;5.19;100.00;102291.25;5068769;28;20066;-72
2022/01/19 08:42:21;;;;;;;11.38;3.80;;;;;;;5.25;100.00;102287.22;5068730;28;20170;-74
2022/01/19 08:44:52;;;;;;;21.20;9.85;;;;;;;5.15;100.00;102271.91;5067598;28;20162;-73
2022/01/19 08:47:20;;;;;;;23.77;9.20;;;;;;;5.15;100.00;102273.81;5067113;28;20077;-73
2022/01/19 08:49:52;;;;;;;13.70;7.20;;;;;;;5.14;100.00;102256.53;5067233;28;20044;-74
2022/01/19 08:52:20;;;;;;;27.15;12.02;;;;;;;5.11;100.00;102245.41;5066309;28;20044;-73
2022/01/19 08:54:47;;;;;;;26.50;11.68;;;;;;;5.21;100.00;102245.91;5067774;28;20070;-74
2022/01/19 08:57:14;;;;;;;18.50;9.50;;;;;;;5.12;100.00;102245.09;5069839;28;20500;-74
2022/01/19 08:59:41;;;;;;;21.48;9.02;;;;;;;5.15;100.00;102238.97;5071372;28;20052;-75
2022/01/19 09:02:07;;;;;;;24.70;10.60;;;;;;;5.03;100.00;102232.53;5069712;28;20053;-73
2022/01/19 09:04:34;;;;;;;21.92;9.43;;;;;;;5.08;100.00;102226.84;5083076;28;20051;-74
2022/01/19 09:07:01;;;;;;;21.42;9.02;;;;;;;5.16;100.00;102228.78;5072989;28;20166;-74
2022/01/19 09:09:28;;;;;;;23.15;10.10;;;;;;;5.10;100.00;102228.13;5071301;28;20048;-74
2022/01/19 09:11:55;;;;;;;29.98;15.55;;;;;;;5.06;100.00;102229.94;5071483;28;20044;-76
2022/01/19 09:14:21;;;;;;;22.50;9.38;;;;;;;5.09;100.00;102222.97;5071658;28;20553;-77
2022/01/19 09:16:51;;;;;;;20.15;8.60;;;;;;;5.17;100.00;102214.72;5072367;28;20082;-75
2022/01/19 09:19:19;;;;;;;32.67;14.02;;;;;;;5.00;100.00;102212.00;5072271;28;20131;-73
2022/01/19 09:21:47;;;;;;;25.35;11.48;;;;;;;5.13;100.00;102202.81;5071303;28;20811;-74
2022/01/19 09:24:14;;;;;;;20.20;9.10;;;;;;;5.03;100.00;102200.38;5086904;28;20080;-73
2022/01/19 09:26:41;;;;;;;16.25;7.72;;;;;;;5.11;100.00;102196.03;5071507;28;20056;-76
2022/01/19 09:29:08;;;;;;;25.98;13.73;;;;;;;5.01;100.00;102194.44;5056000;28;20398;-75
2022/01/19 09:31:36;;;;;;;21.83;9.90;;;;;;;5.15;100.00;102192.31;5070115;28;20131;-74
2022/01/19 09:34:14;;;;;;;25.50;9.18;;;;;;;5.11;100.00;102182.31;5066759;28;20099;-77
2022/01/19 09:36:46;;;;;;;24.05;10.23;;;;;;;5.13;100.00;102191.03;5069359;28;20052;-75
2022/01/19 09:39:17;;;;;;;25.23;10.82;;;;;;;5.08;100.00;102196.69;5070920;28;20501;-74
2022/01/19 09:41:45;;;;;;;27.60;13.65;;;;;;;5.03;100.00;102192.16;5071754;28;20076;-76
2022/01/19 09:44:13;;;;;;;35.15;16.13;;;;;;;4.99;100.00;102199.44;5068804;28;20044;-76
2022/01/19 09:46:39;;;;;;;30.77;13.77;;;;;;;5.08;100.00;102189.28;5069886;28;20056;-74
2022/01/19 09:49:07;;;;;;;7.97;3.42;;;;;;;5.14;100.00;102185.19;5066509;28;20056;-74
2022/01/19 09:51:34;;;;;;;31.50;13.27;;;;;;;5.15;100.00;102172.28;5070887;28;20560;-76
2022/01/19 09:54:00;;;;;;;33.00;15.52;;;;;;;5.19;100.00;102167.75;5068291;28;20066;-73
2022/01/19 09:56:28;;;;;;;20.77;9.13;;;;;;;5.12;100.00;102172.94;5069016;28;20071;-73
2022/01/19 09:58:54;;;;;;;20.85;8.63;;;;;;;5.09;100.00;102174.41;5069516;28;20143;-72
2022/01/19 10:01:23;;;;;;;30.83;13.73;;;;;;;5.07;100.00;102164.91;5068579;28;20539;-72
2022/01/19 10:03:50;;;;;;;24.33;10.75;;;;;;;5.12;100.00;102168.28;5076836;28;20089;-73
2022/01/19 10:06:19;;;;;;;21.13;10.23;;;;;;;5.07;100.00;102149.22;5076758;28;20049;-72
2022/01/19 10:08:50;;;;;;;31.25;13.63;;;;;;;5.13;100.00;102150.66;5069342;28;20093;-72
2022/01/19 10:17:06;;;;;;;17.38;7.80;;;;;;;5.31;100.00;102137.72;5070811;28;20044;-73
2022/01/19 10:19:34;;;;;;;34.55;16.10;;;;;;;5.38;100.00;102133.34;5068716;28;20056;-73
2022/01/19 10:22:01;;;;;;;13.07;6.18;;;;;;;5.39;100.00;102134.13;5070364;28;20090;-74
2022/01/19 10:24:38;;;;;;;23.38;9.40;;;;;;;5.38;100.00;102124.28;5084150;28;20613;-74
2022/01/19 10:27:26;;;;;;;26.95;12.52;;;;;;;5.36;100.00;102121.06;5070451;28;20112;-73
2022/01/19 10:30:15;;;;;;;12.40;5.75;;;;;;;5.36;100.00;102118.31;5070111;28;20576;-73
2022/01/19 10:32:48;;;;;;;21.63;8.52;;;;;;;5.31;100.00;102116.56;5069667;28;20533;-76
2022/01/19 10:35:18;;;;;;;14.15;7.18;;;;;;;5.38;100.00;102111.38;5067633;28;20080;-73
2022/01/19 10:37:47;;;;;;;23.75;12.07;;;;;;;5.41;100.00;102109.91;5066630;28;20052;-74
2022/01/19 10:40:17;;;;;;;28.05;11.05;;;;;;;5.36;100.00;102113.63;5073120;28;20138;-74
2022/01/19 10:42:44;;;;;;;24.13;11.98;;;;;;;5.35;100.00;102108.47;5064731;28;20051;-72
2022/01/19 10:45:14;;;;;;;31.70;11.82;;;;;;;5.39;100.00;102115.72;5069972;28;20049;-73
2022/01/19 10:47:49;;;;;;;26.25;11.95;;;;;;;5.47;100.00;102103.13;5069637;28;20536;-75
2022/01/19 10:50:21;;;;;;;;;;;;;;;5.47;100.00;102107.78;5068895;28;20048;-73
2022/01/19 10:52:49;;;;;;;13.52;5.75;;;;;;;5.43;100.00;102102.13;5069356;28;20079;-74
2022/01/19 10:55:18;;;;;;;23.50;11.45;;;;;;;5.44;100.00;102104.56;5084688;28;20049;-73
2022/01/19 10:57:47;;;;;;;36.13;16.95;;;;;;;5.40;100.00;102103.59;5061664;28;20048;-74
2022/01/19 11:00:28;;;;;;;44.38;16.33;;;;;;;5.45;100.00;102088.91;5064608;28;20087;-73
2022/01/19 11:03:17;;;;;;;35.33;15.85;;;;;;;5.37;100.00;102082.31;5059907;28;20068;-74
2022/01/19 11:05:55;;;;;;;26.90;12.85;;;;;;;5.38;100.00;102075.69;5072273;28;20052;-74
2022/01/19 11:08:24;;;;;;;38.22;19.00;;;;;;;5.38;100.00;102089.44;5068417;28;20052;-74
2022/01/19 11:10:53;;;;;;;36.35;16.38;;;;;;;5.41;100.00;102077.75;5074313;28;20059;-74
2022/01/19 11:13:39;;;;;;;46.58;23.52;;;;;;;5.32;100.00;102079.75;5067793;28;20048;-74
2022/01/19 11:16:06;;;;;;;34.60;15.40;;;;;;;5.48;100.00;102080.00;5069257;28;20048;-73
2022/01/19 11:18:36;;;;;;;27.10;13.02;;;;;;;5.38;100.00;102072.97;5068902;28;20127;-73
2022/01/19 11:21:09;;;;;;;38.15;18.38;;;;;;;5.36;100.00;102061.50;5069043;28;20052;-72
2022/01/19 11:23:48;;;;;;;20.80;9.35;;;;;;;5.40;100.00;102043.22;5064835;28;20049;-73
2022/01/19 11:26:17;;;;;;;38.78;16.88;;;;;;;5.36;100.00;102031.28;5064601;28;20062;-73
2022/01/19 11:28:47;;;;;;;25.80;12.85;;;;;;;5.34;100.00;102025.31;5067083;28;20087;-74
2022/01/19 11:31:38;;;;;;;24.58;10.85;;;;;;;5.36;100.00;102019.50;5065060;28;20058;-74
2022/01/19 11:34:06;;;;;;;30.77;13.50;;;;;;;5.36;100.00;102011.25;5063793;28;20060;-74
2022/01/19 11:36:36;;;;;;;23.55;11.60;;;;;;;5.32;100.00;102011.13;5072986;28;20048;-73
2022/01/19 11:39:12;;;;;;;29.15;13.30;;;;;;;5.32;100.00;102011.13;5067108;28;20485;-75
2022/01/19 11:41:43;;;;;;;28.60;13.23;;;;;;;5.44;100.00;102013.19;5062066;28;20191;-74
2022/01/19 11:44:20;;;;;;;32.58;14.07;;;;;;;5.45;100.00;102006.53;5066923;28;20512;-71
2022/01/19 11:46:49;;;;;;;22.83;8.80;;;;;;;5.45;100.00;102001.06;5062776;28;20056;-74
2022/01/19 11:49:37;;;;;;;11.85;6.32;;;;;;;5.48;100.00;101992.94;5065322;28;20129;-73
2022/01/19 11:52:04;;;;;;;31.40;13.02;;;;;;;5.44;100.00;102007.69;5064735;28;20139;-72
2022/01/19 11:54:33;;;;;;;35.30;16.90;;;;;;;5.38;100.00;101992.53;5065125;28;20078;-75
2022/01/19 11:57:04;;;;;;;29.30;13.43;;;;;;;5.47;100.00;101992.50;5066686;28;20146;-73
2022/01/19 11:59:50;;;;;;;34.42;16.63;;;;;;;5.40;100.00;101991.06;5075307;28;20048;-74
2022/01/19 12:02:33;;;;;;;12.13;5.95;;;;;;;5.47;100.00;101980.38;5064586;28;20058;-73
2022/01/19 12:05:26;;;;;;;24.83;11.18;;;;;;;5.43;100.00;101973.13;5078597;28;20056;-75
2022/01/19 12:08:17;;;;;;;31.75;14.45;;;;;;;5.51;100.00;101963.22;5061916;28;20048;-75
2022/01/19 12:10:48;;;;;;;17.13;7.15;;;;;;;5.52;100.00;101951.09;5063969;28;20048;-73
2022/01/19 12:16:20;;;;;;;22.77;11.25;;;;;;;5.43;100.00;101939.41;5070691;28;20048;-75
2022/01/19 12:18:54;;;;;;;17.60;8.10;;;;;;;5.48;100.00;101934.50;5060022;28;20080;-75
2022/01/19 12:21:21;;;;;;;26.07;12.40;;;;;;;5.47;100.00;101925.47;5063691;28;20226;-73
2022/01/19 12:23:49;;;;;;;32.30;17.38;;;;;;;5.48;100.00;101909.81;5069739;28;20052;-73
2022/01/19 12:26:16;;;;;;;31.08;12.68;;;;;;;5.49;100.00;101916.88;5070920;28;20146;-73
2022/01/19 12:28:51;;;;;;;23.42;11.07;;;;;;;5.46;100.00;101916.78;5068476;28;20045;-73
2022/01/19 12:31:24;;;;;;;17.23;9.00;;;;;;;5.52;100.00;101909.91;5068954;28;20079;-72
2022/01/19 12:34:09;;;;;;;19.52;8.00;;;;;;;5.48;100.00;101907.84;5069898;28;20083;-76
2022/01/19 12:36:58;;;;;;;19.13;9.57;;;;;;;5.51;100.00;101906.41;5060307;28;20057;-74
2022/01/19 12:39:24;;;;;;;31.73;15.57;;;;;;;5.53;100.00;101914.28;5069831;28;20037;-75
2022/01/19 12:42:13;;;;;;;32.75;16.73;;;;;;;5.44;100.00;101898.69;5078991;28;20090;-72
2022/01/19 12:44:46;;;;;;;20.42;10.02;;;;;;;5.56;100.00;101899.91;5065585;28;20491;-72
2022/01/19 12:47:24;;;;;;;34.63;15.20;;;;;;;5.44;100.00;101895.16;5070614;28;20080;-73
2022/01/19 12:49:55;;;;;;;38.33;14.32;;;;;;;5.57;100.00;101888.56;5068806;28;20065;-74